Garwood, Missouri
Current Conditions -  °F | °C
As of 7:09 AM on Saturday 20 Dec 2014 (Local Time) from KPOF Reporting Station
Overcast Overcast  
Wind Chill: 37°   Ceiling: 2900
Heat Index: 37°   Visibility: 8mi
Dew Point: 31°   Wind: 0mph
Humidity: 79%   Direction: NA
Pressure: 30.28"   Gusts: NA
Location:  36.9608°N, 90.9923°W
Report Text: KPOF 201309Z AUTO 00000KT 8SM OVC029 03/M01 A3028 RMK AO2 T00281006
Loading
Personal Weather Stations






























Interactive Weather Map New forecast layout! Learn more

10-Day Weather Forecast

Advertisements
Track Severe Weather on mobile